createdAt,value
2023-03-22T00:10:14.244Z,3.232
2023-03-22T00:25:56.478Z,3.231
2023-03-22T00:41:39.133Z,3.232
2023-03-22T00:57:20.917Z,3.232
2023-03-22T01:13:03.222Z,3.232
2023-03-22T01:28:45.781Z,3.232
2023-03-22T01:44:28.037Z,3.234
2023-03-22T02:00:10.353Z,3.234
2023-03-22T02:15:52.888Z,3.234
2023-03-22T02:31:35.066Z,3.232
2023-03-22T02:47:17.675Z,3.232
2023-03-22T03:03:00.598Z,3.231
2023-03-22T03:18:42.937Z,3.229
2023-03-22T03:34:25.241Z,3.231
2023-03-22T03:50:08.195Z,3.231
2023-03-22T04:05:50.289Z,3.229
2023-03-22T04:21:33.301Z,3.229
2023-03-22T04:22:20.691Z,3.225
2023-03-22T04:38:03.378Z,3.231
2023-03-22T04:53:45.854Z,3.231
2023-03-22T05:09:28.632Z,3.231
2023-03-22T05:25:11.013Z,3.229
2023-03-22T05:40:53.232Z,3.229
2023-03-22T05:56:35.801Z,3.229
2023-03-22T06:12:18.300Z,3.229
2023-03-22T06:28:00.784Z,3.231
2023-03-22T06:43:43.102Z,3.234
2023-03-22T06:59:25.260Z,3.236
2023-03-22T07:15:07.932Z,3.241
2023-03-22T07:30:50.732Z,3.25
2023-03-22T07:46:33.755Z,3.26
2023-03-22T08:33:41.921Z,3.393
2023-03-22T08:49:24.553Z,3.362
2023-03-22T09:20:50.241Z,3.33
2023-03-22T09:36:32.623Z,3.304
2023-03-22T09:52:15.066Z,3.296
2023-03-22T10:39:22.409Z,3.276
2023-03-22T11:10:48.092Z,3.264
2023-03-22T11:42:13.145Z,3.256
2023-03-22T11:57:55.231Z,3.44
2023-03-22T12:29:19.938Z,3.389
2023-03-22T12:45:02.085Z,3.373
2023-03-22T13:00:44.975Z,3.359
2023-03-22T13:16:34.542Z,3.347
2023-03-22T13:32:10.352Z,3.337
2023-03-22T13:48:00.125Z,3.328
2023-03-22T14:03:35.482Z,3.306
2023-03-22T14:19:25.033Z,3.297
2023-03-22T15:06:32.070Z,3.276
2023-03-22T15:37:50.653Z,3.267
2023-03-22T16:09:16.249Z,3.256
2023-03-22T16:56:23.945Z,3.249
2023-03-22T17:12:06.296Z,3.245
2023-03-22T17:43:37.912Z,3.241
2023-03-22T17:59:13.393Z,3.238
2023-03-22T18:14:56.313Z,3.236
2023-03-22T18:30:38.225Z,3.234
2023-03-22T18:46:20.994Z,3.232
2023-03-22T19:02:04.109Z,3.231
2023-03-22T19:17:47.004Z,3.229
2023-03-22T19:33:29.842Z,3.228
2023-03-22T19:49:12.680Z,3.227
2023-03-22T20:04:55.544Z,3.225
2023-03-22T20:20:37.955Z,3.224
2023-03-22T20:36:20.527Z,3.224
2023-03-22T20:52:02.803Z,3.217
2023-03-22T21:07:45.103Z,3.217
2023-03-22T21:23:27.667Z,3.216
2023-03-22T21:39:10.592Z,3.216
2023-03-22T21:54:52.803Z,3.216
2023-03-22T22:10:35.512Z,3.214
2023-03-22T22:26:18.296Z,3.214
2023-03-22T22:42:01.154Z,3.214
2023-03-22T22:57:44.203Z,3.214
2023-03-22T23:13:26.494Z,3.213
2023-03-22T23:29:08.835Z,3.214
2023-03-22T23:44:51.432Z,3.213
